sensor_id;sensor_type;location;lat;lon;timestamp;P1;durP1;ratioP1;P2;durP2;ratioP2
12958;SDS011;6544;51.666;6.634;2023-03-01T00:01:26;11.57;;;7.33;;
12958;SDS011;6544;51.666;6.634;2023-03-01T00:03:55;10.60;;;7.47;;
12958;SDS011;6544;51.666;6.634;2023-03-01T00:06:22;10.73;;;8.30;;
12958;SDS011;6544;51.666;6.634;2023-03-01T00:08:50;20.60;;;14.07;;
12958;SDS011;6544;51.666;6.634;2023-03-01T00:11:18;24.17;;;16.73;;
12958;SDS011;6544;51.666;6.634;2023-03-01T00:13:49;27.63;;;16.80;;
12958;SDS011;6544;51.666;6.634;2023-03-01T00:16:18;17.47;;;11.60;;
12958;SDS011;6544;51.666;6.634;2023-03-01T00:18:46;10.90;;;8.63;;
12958;SDS011;6544;51.666;6.634;2023-03-01T00:21:13;11.30;;;8.90;;
12958;SDS011;6544;51.666;6.634;2023-03-01T00:23:40;9.67;;;7.43;;
12958;SDS011;6544;51.666;6.634;2023-03-01T00:26:08;9.67;;;7.53;;
12958;SDS011;6544;51.666;6.634;2023-03-01T00:28:36;9.23;;;7.67;;
12958;SDS011;6544;51.666;6.634;2023-03-01T00:31:05;10.40;;;7.43;;
12958;SDS011;6544;51.666;6.634;2023-03-01T00:33:33;10.80;;;8.60;;
12958;SDS011;6544;51.666;6.634;2023-03-01T00:36:00;13.30;;;10.17;;
12958;SDS011;6544;51.666;6.634;2023-03-01T00:38:30;21.37;;;13.10;;
12958;SDS011;6544;51.666;6.634;2023-03-01T00:41:02;38.30;;;23.83;;
12958;SDS011;6544;51.666;6.634;2023-03-01T00:43:30;48.50;;;28.53;;
12958;SDS011;6544;51.666;6.634;2023-03-01T00:46:01;27.07;;;17.57;;
12958;SDS011;6544;51.666;6.634;2023-03-01T00:48:29;24.67;;;16.67;;
12958;SDS011;6544;51.666;6.634;2023-03-01T00:50:56;22.70;;;15.33;;
12958;SDS011;6544;51.666;6.634;2023-03-01T00:53:29;24.47;;;15.50;;
12958;SDS011;6544;51.666;6.634;2023-03-01T00:55:57;23.73;;;16.23;;
12958;SDS011;6544;51.666;6.634;2023-03-01T00:58:24;19.73;;;13.43;;
12958;SDS011;6544;51.666;6.634;2023-03-01T01:00:51;23.07;;;14.73;;
12958;SDS011;6544;51.666;6.634;2023-03-01T01:03:18;22.40;;;14.50;;
12958;SDS011;6544;51.666;6.634;2023-03-01T01:05:46;19.57;;;12.87;;
12958;SDS011;6544;51.666;6.634;2023-03-01T01:08:13;14.43;;;11.43;;
12958;SDS011;6544;51.666;6.634;2023-03-01T01:10:40;14.20;;;10.00;;
12958;SDS011;6544;51.666;6.634;2023-03-01T01:13:09;11.73;;;8.90;;
12958;SDS011;6544;51.666;6.634;2023-03-01T01:15:36;10.47;;;8.53;;
12958;SDS011;6544;51.666;6.634;2023-03-01T01:18:03;10.87;;;7.97;;
12958;SDS011;6544;51.666;6.634;2023-03-01T01:20:30;12.60;;;8.27;;
12958;SDS011;6544;51.666;6.634;2023-03-01T01:22:59;12.50;;;8.17;;
12958;SDS011;6544;51.666;6.634;2023-03-01T01:25:26;11.93;;;7.90;;
12958;SDS011;6544;51.666;6.634;2023-03-01T01:27:53;8.50;;;7.50;;
12958;SDS011;6544;51.666;6.634;2023-03-01T01:30:20;9.70;;;7.50;;
12958;SDS011;6544;51.666;6.634;2023-03-01T01:32:46;9.53;;;7.83;;
12958;SDS011;6544;51.666;6.634;2023-03-01T01:35:13;9.43;;;7.77;;
12958;SDS011;6544;51.666;6.634;2023-03-01T01:37:40;11.10;;;8.53;;
12958;SDS011;6544;51.666;6.634;2023-03-01T01:40:10;10.97;;;8.40;;
12958;SDS011;6544;51.666;6.634;2023-03-01T01:42:37;10.73;;;8.00;;
12958;SDS011;6544;51.666;6.634;2023-03-01T01:47:55;12.20;;;8.40;;
12958;SDS011;6544;51.666;6.634;2023-03-01T01:50:25;11.13;;;8.17;;
12958;SDS011;6544;51.666;6.634;2023-03-01T01:53:03;11.80;;;8.37;;
12958;SDS011;6544;51.666;6.634;2023-03-01T01:55:35;11.87;;;8.33;;
12958;SDS011;6544;51.666;6.634;2023-03-01T01:58:06;10.67;;;8.20;;
12958;SDS011;6544;51.666;6.634;2023-03-01T02:00:35;10.27;;;8.13;;
12958;SDS011;6544;51.666;6.634;2023-03-01T02:03:07;10.20;;;7.80;;
12958;SDS011;6544;51.666;6.634;2023-03-01T02:05:38;10.97;;;7.67;;
12958;SDS011;6544;51.666;6.634;2023-03-01T02:08:10;12.17;;;7.90;;
12958;SDS011;6544;51.666;6.634;2023-03-01T02:10:40;12.30;;;8.00;;
12958;SDS011;6544;51.666;6.634;2023-03-01T02:13:07;11.73;;;8.27;;
12958;SDS011;6544;51.666;6.634;2023-03-01T02:15:35;10.30;;;7.87;;
12958;SDS011;6544;51.666;6.634;2023-03-01T02:18:04;10.17;;;8.10;;
12958;SDS011;6544;51.666;6.634;2023-03-01T02:20:33;10.47;;;8.00;;
12958;SDS011;6544;51.666;6.634;2023-03-01T02:23:04;14.53;;;8.47;;
12958;SDS011;6544;51.666;6.634;2023-03-01T02:25:37;10.93;;;8.50;;
12958;SDS011;6544;51.666;6.634;2023-03-01T02:28:20;10.00;;;7.90;;
12958;SDS011;6544;51.666;6.634;2023-03-01T02:30:51;9.07;;;7.77;;
12958;SDS011;6544;51.666;6.634;2023-03-01T02:33:38;9.53;;;7.40;;
12958;SDS011;6544;51.666;6.634;2023-03-01T02:36:08;12.10;;;8.07;;
12958;SDS011;6544;51.666;6.634;2023-03-01T02:38:38;10.97;;;8.43;;
12958;SDS011;6544;51.666;6.634;2023-03-01T02:41:05;12.47;;;8.70;;
12958;SDS011;6544;51.666;6.634;2023-03-01T02:43:36;12.87;;;8.70;;
12958;SDS011;6544;51.666;6.634;2023-03-01T02:46:06;11.20;;;8.57;;
12958;SDS011;6544;51.666;6.634;2023-03-01T02:48:42;13.37;;;8.40;;
12958;SDS011;6544;51.666;6.634;2023-03-01T02:51:13;11.67;;;8.37;;
12958;SDS011;6544;51.666;6.634;2023-03-01T02:53:53;11.90;;;8.57;;
12958;SDS011;6544;51.666;6.634;2023-03-01T02:56:27;11.90;;;9.00;;
12958;SDS011;6544;51.666;6.634;2023-03-01T02:58:57;11.23;;;9.03;;
12958;SDS011;6544;51.666;6.634;2023-03-01T03:01:25;10.33;;;8.67;;
12958;SDS011;6544;51.666;6.634;2023-03-01T03:04:01;11.30;;;8.63;;
12958;SDS011;6544;51.666;6.634;2023-03-01T03:06:29;10.87;;;8.80;;
12958;SDS011;6544;51.666;6.634;2023-03-01T03:08:55;10.80;;;8.40;;
12958;SDS011;6544;51.666;6.634;2023-03-01T03:11:22;13.07;;;9.53;;
12958;SDS011;6544;51.666;6.634;2023-03-01T03:13:49;9.70;;;8.00;;
12958;SDS011;6544;51.666;6.634;2023-03-01T03:16:18;10.13;;;8.47;;
12958;SDS011;6544;51.666;6.634;2023-03-01T03:18:46;14.67;;;8.17;;
12958;SDS011;6544;51.666;6.634;2023-03-01T03:21:13;11.07;;;8.53;;
12958;SDS011;6544;51.666;6.634;2023-03-01T03:23:41;11.43;;;8.60;;
12958;SDS011;6544;51.666;6.634;2023-03-01T03:26:08;10.83;;;8.20;;
12958;SDS011;6544;51.666;6.634;2023-03-01T03:28:38;10.23;;;8.17;;
12958;SDS011;6544;51.666;6.634;2023-03-01T03:31:05;10.17;;;7.87;;
12958;SDS011;6544;51.666;6.634;2023-03-01T03:33:34;9.20;;;7.73;;
12958;SDS011;6544;51.666;6.634;2023-03-01T03:36:01;11.03;;;8.30;;
12958;SDS011;6544;51.666;6.634;2023-03-01T03:38:28;10.87;;;8.47;;
12958;SDS011;6544;51.666;6.634;2023-03-01T03:40:59;12.40;;;8.80;;
12958;SDS011;6544;51.666;6.634;2023-03-01T03:43:29;12.33;;;8.00;;
12958;SDS011;6544;51.666;6.634;2023-03-01T03:45:57;11.37;;;8.10;;
12958;SDS011;6544;51.666;6.634;2023-03-01T03:48:24;11.00;;;8.33;;
12958;SDS011;6544;51.666;6.634;2023-03-01T03:50:53;10.03;;;7.83;;
12958;SDS011;6544;51.666;6.634;2023-03-01T03:53:22;10.60;;;8.00;;
12958;SDS011;6544;51.666;6.634;2023-03-01T03:55:51;10.77;;;7.67;;
12958;SDS011;6544;51.666;6.634;2023-03-01T03:58:19;13.60;;;8.03;;
12958;SDS011;6544;51.666;6.634;2023-03-01T04:00:48;10.33;;;8.03;;
12958;SDS011;6544;51.666;6.634;2023-03-01T04:03:17;12.47;;;8.13;;
12958;SDS011;6544;51.666;6.634;2023-03-01T04:05:45;12.23;;;8.37;;
12958;SDS011;6544;51.666;6.634;2023-03-01T04:08:16;10.77;;;8.27;;
12958;SDS011;6544;51.666;6.634;2023-03-01T04:10:45;14.40;;;8.20;;
12958;SDS011;6544;51.666;6.634;2023-03-01T04:13:14;11.17;;;8.23;;
12958;SDS011;6544;51.666;6.634;2023-03-01T04:15:44;10.00;;;7.90;;
12958;SDS011;6544;51.666;6.634;2023-03-01T04:18:12;10.83;;;8.30;;
12958;SDS011;6544;51.666;6.634;2023-03-01T04:20:41;10.70;;;8.13;;
12958;SDS011;6544;51.666;6.634;2023-03-01T04:23:10;10.83;;;8.17;;
12958;SDS011;6544;51.666;6.634;2023-03-01T04:25:42;11.17;;;7.87;;
12958;SDS011;6544;51.666;6.634;2023-03-01T04:28:14;11.53;;;8.00;;
12958;SDS011;6544;51.666;6.634;2023-03-01T04:30:42;10.93;;;8.53;;
12958;SDS011;6544;51.666;6.634;2023-03-01T04:33:09;10.47;;;7.93;;
12958;SDS011;6544;51.666;6.634;2023-03-01T04:35:36;10.83;;;8.50;;
12958;SDS011;6544;51.666;6.634;2023-03-01T04:38:05;12.87;;;8.83;;
12958;SDS011;6544;51.666;6.634;2023-03-01T04:40:33;11.20;;;8.33;;
12958;SDS011;6544;51.666;6.634;2023-03-01T04:43:02;11.37;;;8.70;;
12958;SDS011;6544;51.666;6.634;2023-03-01T04:45:31;12.90;;;8.33;;
12958;SDS011;6544;51.666;6.634;2023-03-01T04:47:59;12.13;;;9.03;;
12958;SDS011;6544;51.666;6.634;2023-03-01T04:50:26;11.53;;;8.73;;
12958;SDS011;6544;51.666;6.634;2023-03-01T04:52:53;14.70;;;9.10;;
12958;SDS011;6544;51.666;6.634;2023-03-01T04:55:23;11.57;;;9.33;;
12958;SDS011;6544;51.666;6.634;2023-03-01T04:57:50;12.97;;;8.77;;
12958;SDS011;6544;51.666;6.634;2023-03-01T05:00:19;10.10;;;8.53;;
12958;SDS011;6544;51.666;6.634;2023-03-01T05:02:47;10.63;;;8.60;;
12958;SDS011;6544;51.666;6.634;2023-03-01T05:05:18;12.83;;;8.57;;
12958;SDS011;6544;51.666;6.634;2023-03-01T05:07:50;12.33;;;8.23;;
12958;SDS011;6544;51.666;6.634;2023-03-01T05:10:17;12.07;;;8.77;;
12958;SDS011;6544;51.666;6.634;2023-03-01T05:12:46;9.57;;;8.10;;
12958;SDS011;6544;51.666;6.634;2023-03-01T05:15:14;11.60;;;8.53;;
12958;SDS011;6544;51.666;6.634;2023-03-01T05:17:42;10.60;;;8.43;;
12958;SDS011;6544;51.666;6.634;2023-03-01T05:20:09;11.67;;;8.50;;
12958;SDS011;6544;51.666;6.634;2023-03-01T05:22:37;10.67;;;8.57;;
12958;SDS011;6544;51.666;6.634;2023-03-01T05:25:04;10.03;;;8.20;;
12958;SDS011;6544;51.666;6.634;2023-03-01T05:27:33;10.77;;;8.37;;
12958;SDS011;6544;51.666;6.634;2023-03-01T05:30:00;12.00;;;8.50;;
12958;SDS011;6544;51.666;6.634;2023-03-01T05:32:38;9.87;;;8.17;;
12958;SDS011;6544;51.666;6.634;2023-03-01T05:35:08;12.40;;;8.47;;
12958;SDS011;6544;51.666;6.634;2023-03-01T05:37:38;11.10;;;8.63;;
12958;SDS011;6544;51.666;6.634;2023-03-01T05:40:05;12.73;;;9.43;;
12958;SDS011;6544;51.666;6.634;2023-03-01T05:42:40;13.43;;;9.63;;
12958;SDS011;6544;51.666;6.634;2023-03-01T05:45:08;16.57;;;9.33;;
12958;SDS011;6544;51.666;6.634;2023-03-01T05:47:37;11.30;;;8.97;;
12958;SDS011;6544;51.666;6.634;2023-03-01T05:50:04;13.27;;;9.37;;
12958;SDS011;6544;51.666;6.634;2023-03-01T05:52:33;10.67;;;8.70;;
12958;SDS011;6544;51.666;6.634;2023-03-01T05:55:00;10.70;;;8.60;;
12958;SDS011;6544;51.666;6.634;2023-03-01T05:57:27;13.00;;;9.17;;
12958;SDS011;6544;51.666;6.634;2023-03-01T05:59:55;11.57;;;8.57;;
12958;SDS011;6544;51.666;6.634;2023-03-01T06:02:21;11.93;;;9.10;;
12958;SDS011;6544;51.666;6.634;2023-03-01T06:04:48;11.00;;;8.70;;
12958;SDS011;6544;51.666;6.634;2023-03-01T06:07:15;13.80;;;9.47;;
12958;SDS011;6544;51.666;6.634;2023-03-01T06:09:43;13.43;;;8.73;;
12958;SDS011;6544;51.666;6.634;2023-03-01T06:12:10;10.63;;;8.47;;
12958;SDS011;6544;51.666;6.634;2023-03-01T06:14:37;9.67;;;8.33;;
12958;SDS011;6544;51.666;6.634;2023-03-01T06:17:04;11.27;;;8.90;;
12958;SDS011;6544;51.666;6.634;2023-03-01T06:19:31;11.23;;;9.00;;
12958;SDS011;6544;51.666;6.634;2023-03-01T06:21:58;9.90;;;8.40;;
12958;SDS011;6544;51.666;6.634;2023-03-01T06:24:24;12.63;;;9.10;;
12958;SDS011;6544;51.666;6.634;2023-03-01T06:26:55;17.90;;;9.20;;
12958;SDS011;6544;51.666;6.634;2023-03-01T06:29:22;18.13;;;9.57;;
12958;SDS011;6544;51.666;6.634;2023-03-01T06:31:49;18.20;;;9.77;;
12958;SDS011;6544;51.666;6.634;2023-03-01T06:34:15;11.60;;;8.53;;
12958;SDS011;6544;51.666;6.634;2023-03-01T06:36:42;18.87;;;14.10;;
12958;SDS011;6544;51.666;6.634;2023-03-01T06:39:09;17.70;;;14.80;;
12958;SDS011;6544;51.666;6.634;2023-03-01T06:41:36;15.90;;;11.87;;
12958;SDS011;6544;51.666;6.634;2023-03-01T06:44:04;14.57;;;10.10;;
12958;SDS011;6544;51.666;6.634;2023-03-01T06:46:31;14.83;;;11.80;;
12958;SDS011;6544;51.666;6.634;2023-03-01T06:48:58;13.20;;;10.23;;
12958;SDS011;6544;51.666;6.634;2023-03-01T06:51:25;15.77;;;10.43;;
12958;SDS011;6544;51.666;6.634;2023-03-01T06:53:52;12.70;;;10.23;;
12958;SDS011;6544;51.666;6.634;2023-03-01T06:56:19;15.33;;;9.80;;
12958;SDS011;6544;51.666;6.634;2023-03-01T06:58:46;13.77;;;9.37;;
12958;SDS011;6544;51.666;6.634;2023-03-01T07:01:14;13.00;;;9.63;;
12958;SDS011;6544;51.666;6.634;2023-03-01T07:03:41;13.37;;;10.20;;
12958;SDS011;6544;51.666;6.634;2023-03-01T07:06:09;13.73;;;9.10;;
12958;SDS011;6544;51.666;6.634;2023-03-01T07:08:36;15.87;;;9.60;;
12958;SDS011;6544;51.666;6.634;2023-03-01T07:11:03;18.30;;;10.57;;
12958;SDS011;6544;51.666;6.634;2023-03-01T07:13:30;14.63;;;10.30;;
12958;SDS011;6544;51.666;6.634;2023-03-01T07:15:57;14.13;;;9.17;;
12958;SDS011;6544;51.666;6.634;2023-03-01T07:18:25;16.57;;;9.93;;
12958;SDS011;6544;51.666;6.634;2023-03-01T07:20:53;13.87;;;10.10;;
12958;SDS011;6544;51.666;6.634;2023-03-01T07:23:19;13.57;;;9.13;;
12958;SDS011;6544;51.666;6.634;2023-03-01T07:25:50;13.60;;;9.63;;
12958;SDS011;6544;51.666;6.634;2023-03-01T07:28:19;11.80;;;9.10;;
12958;SDS011;6544;51.666;6.634;2023-03-01T07:30:46;15.73;;;9.30;;
12958;SDS011;6544;51.666;6.634;2023-03-01T07:33:12;12.33;;;9.10;;
12958;SDS011;6544;51.666;6.634;2023-03-01T07:35:41;11.30;;;8.57;;
12958;SDS011;6544;51.666;6.634;2023-03-01T07:38:08;10.33;;;8.70;;
12958;SDS011;6544;51.666;6.634;2023-03-01T07:40:35;10.97;;;8.23;;
12958;SDS011;6544;51.666;6.634;2023-03-01T07:43:02;10.93;;;8.27;;
12958;SDS011;6544;51.666;6.634;2023-03-01T07:45:29;11.47;;;8.43;;
12958;SDS011;6544;51.666;6.634;2023-03-01T07:47:56;12.53;;;8.30;;
12958;SDS011;6544;51.666;6.634;2023-03-01T07:50:22;13.03;;;8.43;;
12958;SDS011;6544;51.666;6.634;2023-03-01T07:52:51;11.37;;;8.47;;
12958;SDS011;6544;51.666;6.634;2023-03-01T07:55:17;11.70;;;8.70;;
12958;SDS011;6544;51.666;6.634;2023-03-01T07:57:45;11.10;;;8.53;;
12958;SDS011;6544;51.666;6.634;2023-03-01T08:00:12;14.20;;;8.63;;
12958;SDS011;6544;51.666;6.634;2023-03-01T08:02:39;9.67;;;7.90;;
12958;SDS011;6544;51.666;6.634;2023-03-01T08:05:07;14.60;;;8.73;;
12958;SDS011;6544;51.666;6.634;2023-03-01T08:07:35;11.87;;;8.80;;
12958;SDS011;6544;51.666;6.634;2023-03-01T08:10:03;9.63;;;8.13;;
12958;SDS011;6544;51.666;6.634;2023-03-01T08:12:31;11.50;;;8.80;;
12958;SDS011;6544;51.666;6.634;2023-03-01T08:14:57;11.13;;;8.57;;
12958;SDS011;6544;51.666;6.634;2023-03-01T08:17:24;11.40;;;8.30;;
12958;SDS011;6544;51.666;6.634;2023-03-01T08:19:51;12.97;;;8.50;;
12958;SDS011;6544;51.666;6.634;2023-03-01T08:22:18;11.47;;;8.80;;
12958;SDS011;6544;51.666;6.634;2023-03-01T08:24:46;14.63;;;8.80;;
12958;SDS011;6544;51.666;6.634;2023-03-01T08:27:15;13.27;;;8.47;;
12958;SDS011;6544;51.666;6.634;2023-03-01T08:29:43;12.10;;;8.27;;
12958;SDS011;6544;51.666;6.634;2023-03-01T08:32:09;11.10;;;7.80;;
12958;SDS011;6544;51.666;6.634;2023-03-01T08:34:36;9.20;;;7.30;;
12958;SDS011;6544;51.666;6.634;2023-03-01T08:37:03;8.80;;;7.30;;
12958;SDS011;6544;51.666;6.634;2023-03-01T08:39:30;10.07;;;7.27;;
12958;SDS011;6544;51.666;6.634;2023-03-01T08:41:57;9.33;;;7.57;;
12958;SDS011;6544;51.666;6.634;2023-03-01T08:44:26;9.77;;;7.40;;
12958;SDS011;6544;51.666;6.634;2023-03-01T08:46:52;8.83;;;7.07;;
12958;SDS011;6544;51.666;6.634;2023-03-01T08:49:20;10.90;;;7.00;;
12958;SDS011;6544;51.666;6.634;2023-03-01T08:51:48;10.67;;;7.40;;
12958;SDS011;6544;51.666;6.634;2023-03-01T08:54:16;11.57;;;7.63;;
12958;SDS011;6544;51.666;6.634;2023-03-01T08:56:45;8.47;;;6.70;;
12958;SDS011;6544;51.666;6.634;2023-03-01T08:59:13;11.03;;;7.23;;
12958;SDS011;6544;51.666;6.634;2023-03-01T09:01:43;10.37;;;7.03;;
12958;SDS011;6544;51.666;6.634;2023-03-01T09:04:10;11.33;;;7.97;;
12958;SDS011;6544;51.666;6.634;2023-03-01T09:06:37;10.10;;;7.27;;
12958;SDS011;6544;51.666;6.634;2023-03-01T09:09:05;10.77;;;7.40;;
12958;SDS011;6544;51.666;6.634;2023-03-01T09:11:34;10.50;;;7.27;;
12958;SDS011;6544;51.666;6.634;2023-03-01T09:14:04;9.23;;;7.20;;
12958;SDS011;6544;51.666;6.634;2023-03-01T09:16:32;11.03;;;6.90;;
12958;SDS011;6544;51.666;6.634;2023-03-01T09:19:02;11.40;;;6.83;;
12958;SDS011;6544;51.666;6.634;2023-03-01T09:21:29;8.57;;;6.90;;
12958;SDS011;6544;51.666;6.634;2023-03-01T09:23:57;9.23;;;6.70;;
12958;SDS011;6544;51.666;6.634;2023-03-01T09:26:24;9.83;;;6.67;;
12958;SDS011;6544;51.666;6.634;2023-03-01T09:28:52;8.13;;;6.70;;
12958;SDS011;6544;51.666;6.634;2023-03-01T09:31:22;8.67;;;6.47;;
12958;SDS011;6544;51.666;6.634;2023-03-01T09:33:51;8.63;;;6.63;;
12958;SDS011;6544;51.666;6.634;2023-03-01T09:36:21;8.90;;;6.43;;
12958;SDS011;6544;51.666;6.634;2023-03-01T09:38:49;10.97;;;6.43;;
12958;SDS011;6544;51.666;6.634;2023-03-01T09:41:22;9.67;;;6.33;;
12958;SDS011;6544;51.666;6.634;2023-03-01T09:44:13;9.63;;;6.20;;
12958;SDS011;6544;51.666;6.634;2023-03-01T09:46:47;7.53;;;5.97;;
12958;SDS011;6544;51.666;6.634;2023-03-01T09:49:15;9.87;;;6.47;;
12958;SDS011;6544;51.666;6.634;2023-03-01T09:51:47;6.93;;;5.60;;
12958;SDS011;6544;51.666;6.634;2023-03-01T09:54:22;8.47;;;6.17;;
12958;SDS011;6544;51.666;6.634;2023-03-01T09:56:53;9.83;;;6.20;;
12958;SDS011;6544;51.666;6.634;2023-03-01T09:59:50;8.87;;;6.47;;
12958;SDS011;6544;51.666;6.634;2023-03-01T10:02:27;8.67;;;6.60;;
12958;SDS011;6544;51.666;6.634;2023-03-01T10:05:04;8.87;;;6.33;;
12958;SDS011;6544;51.666;6.634;2023-03-01T10:07:42;9.63;;;6.33;;
12958;SDS011;6544;51.666;6.634;2023-03-01T10:10:16;9.07;;;6.60;;
12958;SDS011;6544;51.666;6.634;2023-03-01T10:12:52;7.83;;;6.30;;
12958;SDS011;6544;51.666;6.634;2023-03-01T10:15:25;8.10;;;5.97;;
12958;SDS011;6544;51.666;6.634;2023-03-01T10:18:00;8.00;;;6.20;;
12958;SDS011;6544;51.666;6.634;2023-03-01T10:20:33;9.13;;;6.27;;
12958;SDS011;6544;51.666;6.634;2023-03-01T10:23:10;8.77;;;5.67;;
12958;SDS011;6544;51.666;6.634;2023-03-01T10:25:42;12.10;;;6.23;;
12958;SDS011;6544;51.666;6.634;2023-03-01T10:28:16;9.97;;;5.53;;
12958;SDS011;6544;51.666;6.634;2023-03-01T10:30:46;10.37;;;6.13;;
12958;SDS011;6544;51.666;6.634;2023-03-01T10:33:16;8.63;;;6.20;;
12958;SDS011;6544;51.666;6.634;2023-03-01T10:35:46;8.60;;;6.10;;
12958;SDS011;6544;51.666;6.634;2023-03-01T10:38:15;7.77;;;6.17;;
12958;SDS011;6544;51.666;6.634;2023-03-01T10:40:53;8.87;;;6.00;;
12958;SDS011;6544;51.666;6.634;2023-03-01T10:43:23;9.30;;;6.18;;
12958;SDS011;6544;51.666;6.634;2023-03-01T10:45:51;8.57;;;6.03;;
12958;SDS011;6544;51.666;6.634;2023-03-01T10:48:19;7.50;;;6.07;;
12958;SDS011;6544;51.666;6.634;2023-03-01T10:50:50;8.83;;;6.17;;
12958;SDS011;6544;51.666;6.634;2023-03-01T10:53:33;8.43;;;6.37;;
12958;SDS011;6544;51.666;6.634;2023-03-01T10:56:03;12.13;;;6.13;;
12958;SDS011;6544;51.666;6.634;2023-03-01T10:58:31;8.43;;;6.20;;
12958;SDS011;6544;51.666;6.634;2023-03-01T11:01:00;8.43;;;5.83;;
12958;SDS011;6544;51.666;6.634;2023-03-01T11:03:29;9.67;;;6.10;;
12958;SDS011;6544;51.666;6.634;2023-03-01T11:06:01;8.55;;;6.20;;
12958;SDS011;6544;51.666;6.634;2023-03-01T11:08:36;7.40;;;5.70;;
12958;SDS011;6544;51.666;6.634;2023-03-01T11:11:16;7.95;;;5.93;;
12958;SDS011;6544;51.666;6.634;2023-03-01T11:13:56;8.37;;;5.97;;
12958;SDS011;6544;51.666;6.634;2023-03-01T11:16:26;7.73;;;5.80;;
12958;SDS011;6544;51.666;6.634;2023-03-01T11:18:56;8.13;;;5.40;;
12958;SDS011;6544;51.666;6.634;2023-03-01T11:21:30;8.65;;;5.78;;
12958;SDS011;6544;51.666;6.634;2023-03-01T11:24:02;8.32;;;5.75;;
12958;SDS011;6544;51.666;6.634;2023-03-01T11:26:31;8.02;;;5.72;;
12958;SDS011;6544;51.666;6.634;2023-03-01T11:29:05;6.70;;;5.68;;
12958;SDS011;6544;51.666;6.634;2023-03-01T11:31:42;10.63;;;6.15;;
12958;SDS011;6544;51.666;6.634;2023-03-01T11:34:12;7.55;;;5.80;;
12958;SDS011;6544;51.666;6.634;2023-03-01T11:36:46;8.63;;;5.85;;
12958;SDS011;6544;51.666;6.634;2023-03-01T11:39:20;7.13;;;5.93;;
12958;SDS011;6544;51.666;6.634;2023-03-01T11:41:58;10.23;;;6.32;;
12958;SDS011;6544;51.666;6.634;2023-03-01T11:44:30;6.65;;;5.53;;
12958;SDS011;6544;51.666;6.634;2023-03-01T11:47:06;6.28;;;5.22;;
12958;SDS011;6544;51.666;6.634;2023-03-01T11:50:01;7.55;;;5.57;;
12958;SDS011;6544;51.666;6.634;2023-03-01T11:52:38;7.40;;;5.65;;
12958;SDS011;6544;51.666;6.634;2023-03-01T11:55:19;8.30;;;5.82;;
12958;SDS011;6544;51.666;6.634;2023-03-01T11:58:03;10.55;;;6.13;;
12958;SDS011;6544;51.666;6.634;2023-03-01T12:00:44;8.68;;;6.07;;
12958;SDS011;6544;51.666;6.634;2023-03-01T12:03:23;10.15;;;6.25;;
12958;SDS011;6544;51.666;6.634;2023-03-01T12:06:03;9.80;;;6.57;;
12958;SDS011;6544;51.666;6.634;2023-03-01T12:08:52;8.32;;;6.60;;
12958;SDS011;6544;51.666;6.634;2023-03-01T12:11:31;8.30;;;6.13;;
12958;SDS011;6544;51.666;6.634;2023-03-01T12:14:20;9.50;;;6.82;;
12958;SDS011;6544;51.666;6.634;2023-03-01T12:20:12;8.50;;;6.05;;
12958;SDS011;6544;51.666;6.634;2023-03-01T12:22:52;8.98;;;6.22;;
12958;SDS011;6544;51.666;6.634;2023-03-01T12:25:43;9.32;;;6.72;;
12958;SDS011;6544;51.666;6.634;2023-03-01T12:31:35;8.35;;;6.18;;
12958;SDS011;6544;51.666;6.634;2023-03-01T12:34:14;9.40;;;6.57;;
12958;SDS011;6544;51.666;6.634;2023-03-01T12:37:03;8.43;;;6.15;;
12958;SDS011;6544;51.666;6.634;2023-03-01T12:39:45;8.27;;;6.20;;
12958;SDS011;6544;51.666;6.634;2023-03-01T12:42:27;9.90;;;6.68;;
12958;SDS011;6544;51.666;6.634;2023-03-01T12:45:09;8.95;;;;;
12958;SDS011;6544;51.666;6.634;2023-03-01T12:48:02;8.60;;;7.40;;
12958;SDS011;6544;51.666;6.634;2023-03-01T12:50:45;10.07;;;6.28;;
12958;SDS011;6544;51.666;6.634;2023-03-01T12:53:19;9.32;;;6.63;;
12958;SDS011;6544;51.666;6.634;2023-03-01T12:55:49;10.73;;;6.93;;
12958;SDS011;6544;51.666;6.634;2023-03-01T12:58:21;10.57;;;7.18;;
12958;SDS011;6544;51.666;6.634;2023-03-01T13:00:59;9.00;;;6.28;;
12958;SDS011;6544;51.666;6.634;2023-03-01T13:03:47;9.85;;;6.55;;
12958;SDS011;6544;51.666;6.634;2023-03-01T13:06:38;8.68;;;6.35;;
12958;SDS011;6544;51.666;6.634;2023-03-01T13:09:13;9.85;;;6.40;;
12958;SDS011;6544;51.666;6.634;2023-03-01T13:11:46;8.18;;;6.18;;
12958;SDS011;6544;51.666;6.634;2023-03-01T13:17:30;10.45;;;6.40;;
12958;SDS011;6544;51.666;6.634;2023-03-01T13:20:12;8.98;;;6.97;;
12958;SDS011;6544;51.666;6.634;2023-03-01T13:22:41;9.43;;;7.65;;
12958;SDS011;6544;51.666;6.634;2023-03-01T13:25:12;11.38;;;8.63;;
12958;SDS011;6544;51.666;6.634;2023-03-01T13:27:41;8.70;;;7.15;;
12958;SDS011;6544;51.666;6.634;2023-03-01T13:36:09;11.00;;;7.88;;
12958;SDS011;6544;51.666;6.634;2023-03-01T13:38:46;9.85;;;7.25;;
12958;SDS011;6544;51.666;6.634;2023-03-01T13:41:14;12.57;;;7.18;;
12958;SDS011;6544;51.666;6.634;2023-03-01T13:43:43;9.93;;;7.22;;
12958;SDS011;6544;51.666;6.634;2023-03-01T13:46:15;10.00;;;8.02;;
12958;SDS011;6544;51.666;6.634;2023-03-01T13:48:44;11.65;;;7.70;;
12958;SDS011;6544;51.666;6.634;2023-03-01T13:51:15;10.55;;;7.47;;
12958;SDS011;6544;51.666;6.634;2023-03-01T13:53:46;9.63;;;7.65;;
12958;SDS011;6544;51.666;6.634;2023-03-01T13:56:15;10.10;;;7.75;;
12958;SDS011;6544;51.666;6.634;2023-03-01T13:58:46;12.13;;;7.50;;
12958;SDS011;6544;51.666;6.634;2023-03-01T14:01:20;10.82;;;7.70;;
12958;SDS011;6544;51.666;6.634;2023-03-01T14:03:50;14.02;;;7.75;;
12958;SDS011;6544;51.666;6.634;2023-03-01T14:06:19;10.02;;;7.93;;
12958;SDS011;6544;51.666;6.634;2023-03-01T14:08:49;9.68;;;7.80;;
12958;SDS011;6544;51.666;6.634;2023-03-01T14:14:24;10.07;;;7.28;;
12958;SDS011;6544;51.666;6.634;2023-03-01T14:20:17;11.48;;;8.65;;
12958;SDS011;6544;51.666;6.634;2023-03-01T14:22:47;12.60;;;7.93;;
12958;SDS011;6544;51.666;6.634;2023-03-01T14:25:19;10.70;;;7.75;;
12958;SDS011;6544;51.666;6.634;2023-03-01T14:27:52;9.23;;;7.50;;
12958;SDS011;6544;51.666;6.634;2023-03-01T14:30:23;9.88;;;7.13;;
12958;SDS011;6544;51.666;6.634;2023-03-01T14:32:53;9.80;;;7.60;;
12958;SDS011;6544;51.666;6.634;2023-03-01T14:35:22;10.48;;;8.15;;
12958;SDS011;6544;51.666;6.634;2023-03-01T14:37:52;9.32;;;7.57;;
12958;SDS011;6544;51.666;6.634;2023-03-01T14:40:21;10.85;;;7.15;;
12958;SDS011;6544;51.666;6.634;2023-03-01T14:42:53;11.73;;;7.55;;
12958;SDS011;6544;51.666;6.634;2023-03-01T14:45:22;11.38;;;7.38;;
12958;SDS011;6544;51.666;6.634;2023-03-01T14:47:52;10.48;;;7.57;;
12958;SDS011;6544;51.666;6.634;2023-03-01T14:50:24;9.93;;;7.60;;
12958;SDS011;6544;51.666;6.634;2023-03-01T14:52:55;9.90;;;7.47;;
12958;SDS011;6544;51.666;6.634;2023-03-01T14:55:26;8.93;;;7.32;;
12958;SDS011;6544;51.666;6.634;2023-03-01T14:57:56;10.47;;;7.83;;
12958;SDS011;6544;51.666;6.634;2023-03-01T15:00:24;9.43;;;6.90;;
12958;SDS011;6544;51.666;6.634;2023-03-01T15:02:53;9.40;;;7.17;;
12958;SDS011;6544;51.666;6.634;2023-03-01T15:05:23;9.73;;;6.90;;
12958;SDS011;6544;51.666;6.634;2023-03-01T15:07:55;9.50;;;7.73;;
12958;SDS011;6544;51.666;6.634;2023-03-01T15:10:26;10.60;;;7.10;;
12958;SDS011;6544;51.666;6.634;2023-03-01T15:12:55;9.73;;;7.30;;
12958;SDS011;6544;51.666;6.634;2023-03-01T15:15:29;10.60;;;7.10;;
12958;SDS011;6544;51.666;6.634;2023-03-01T15:18:06;9.90;;;7.40;;
12958;SDS011;6544;51.666;6.634;2023-03-01T15:20:43;10.57;;;6.60;;
12958;SDS011;6544;51.666;6.634;2023-03-01T15:23:18;12.20;;;7.10;;
12958;SDS011;6544;51.666;6.634;2023-03-01T15:25:48;9.30;;;6.73;;
12958;SDS011;6544;51.666;6.634;2023-03-01T15:28:21;11.90;;;6.33;;
12958;SDS011;6544;51.666;6.634;2023-03-01T15:30:52;10.00;;;7.10;;
12958;SDS011;6544;51.666;6.634;2023-03-01T15:33:28;9.73;;;5.88;;
12958;SDS011;6544;51.666;6.634;2023-03-01T15:35:58;10.02;;;6.75;;